As Olivia — DYQC — position and weather

sailwx.info

Track history (hours):
 
Tides and Currents Weather Stations Pressure Air Temp Water Temp Dewpoint Dewpoint Depression Visibility Wind Speed Wind Dir Waves Ship Positions

As Olivia

Last reported at 2015-Apr-20 05:31 UTC. Time now 2015-Apr-21 14:44 UTC.
Position N 31°21' E 032°22'.

Length 146 m; draft 9.7 m.

Type: Ship (hazmat cat B). MMSI: 548767000.

Date/timePositionNaut miles runAvg speedWind from/ knotsBaromVisibWave heightAir tempDewpointWater temp
2015-Apr-20 05:31N 31°21' E 032°22'2 2.3
2015-Apr-20 04:31N 31°22' E 032°19'0 0.0
2015-Apr-20 02:27N 31°22' E 032°19'0 0.0
2015-Apr-20 01:33N 31°22' E 032°19'0 0.0
2015-Apr-20 00:30N 31°22' E 032°19'0 0.0
2015-Apr-19 23:33N 31°22' E 032°19'0 0.0
2015-Apr-19 22:30N 31°22' E 032°19'0 0.0
2015-Apr-19 21:33N 31°22' E 032°19'0 0.0
2015-Apr-19 20:27N 31°22' E 032°19'0 0.0
2015-Apr-19 19:27N 31°22' E 032°19'0 0.0
2015-Apr-19 18:33N 31°22' E 032°19'0 0.0
2015-Apr-19 17:33N 31°22' E 032°19'0 0.0
2015-Apr-19 16:33N 31°22' E 032°19'0 0.0
2015-Apr-19 15:27N 31°22' E 032°19'0 0.0
2015-Apr-19 14:33N 31°22' E 032°19'0 0.0
2015-Apr-19 13:33N 31°22' E 032°19'0 0.0
2015-Apr-19 12:33N 31°22' E 032°19'0 0.1
2015-Apr-19 11:33N 31°22' E 032°19'0 0.1
2015-Apr-19 10:32N 31°22' E 032°19'0 0.2
2015-Apr-19 09:33N 31°22' E 032°20'4711.8
2015-Apr-19 05:33N 31°53' E 031°37'7113.7
2015-Apr-19 00:24N 32°13' E 030°18'1414.2
2015-Apr-18 23:25N 32°18' E 030°02'1214.2
2015-Apr-18 22:33N 32°22' E 029°48'1714.0
2015-Apr-18 21:18N 32°27' E 029°28'1614.1
2015-Apr-18 20:10N 32°32' E 029°10'913.9
2015-Apr-18 19:34N 32°34' E 029°01'  
2015-Apr-16 15:23N 36°21' E 014°45'1214.2
2015-Apr-16 14:33N 36°25' E 014°32'1414.1
2015-Apr-16 13:33N 36°29' E 014°15'1413.8
2015-Apr-16 12:33N 36°33' E 013°59'1413.8
2015-Apr-16 11:33N 36°37' E 013°42'1414.2
2015-Apr-16 10:33N 36°42' E 013°26'1414.0
2015-Apr-16 09:33N 36°46' E 013°09'1413.7
2015-Apr-16 08:33N 36°50' E 012°53'1413.7
2015-Apr-16 07:34N 36°54' E 012°36'1414.0
2015-Apr-16 06:34N 36°59' E 012°20'1413.9
2015-Apr-16 05:33N 37°04' E 012°03'1414.1
2015-Apr-16 04:33N 37°09' E 011°47'13713.5
2015-Apr-15 18:23N 37°41' E 008°60'1813.5
2015-Apr-15 17:05N 37°44' E 008°38'5014.2
2015-Apr-15 13:33N 37°45' E 007°34'1412.8
2015-Apr-15 12:27N 37°44' E 007°16'4514.4
2015-Apr-15 09:19N 37°40' E 006°19'1011.8
2015-Apr-15 08:28N 37°39' E 006°07'1413.6
2015-Apr-15 07:26N 37°37' E 005°49'1413.7
2015-Apr-15 06:23N 37°36' E 005°31'6513.4
2015-Apr-15 01:33N 37°31' E 004°10'1413.9
2015-Apr-15 00:33N 37°29' E 003°52'1413.7
2015-Apr-14 23:33N 37°25' E 003°36'1313.3
2015-Apr-14 22:33N 37°22' E 003°20'1313.3
2015-Apr-14 21:33N 37°18' E 003°03'1313.3
2015-Apr-14 20:33N 37°15' E 002°47'1313.4
2015-Apr-14 19:33N 37°11' E 002°31'1313.1
2015-Apr-14 18:33N 37°08' E 002°15'1212.4
2015-Apr-14 17:33N 37°05' E 002°00'1211.8
2015-Apr-14 16:33N 37°02' E 001°46'1312.9
2015-Apr-14 15:33N 36°59' E 001°30'3213.2
2015-Apr-14 13:09N 36°51' E 000°52'813.4
2015-Apr-14 12:32N 36°49' E 000°42'1413.3
2015-Apr-14 11:29N 36°45' E 000°25'1313.6
2015-Apr-14 10:33N 36°42' E 000°10'1413.7
2015-Apr-14 09:32N 36°38' W 000°07'1313.5
2015-Apr-14 08:33N 36°35' W 000°23'1313.2
2015-Apr-14 07:33N 36°32' W 000°39'1612.8
2015-Apr-14 06:16N 36°28' W 000°59'20811.1
2015-Apr-13 11:34N 36°00' W 005°14'1312.2
2015-Apr-13 10:32N 36°10' W 005°24'1 0.1
2015-Apr-12 18:31N 36°11' W 005°24'6 6.1
2015-Apr-12 17:33N 36°05' W 005°22'1 0.6
2015-Apr-12 16:33N 36°04' W 005°22'1 0.5
2015-Apr-12 15:33N 36°04' W 005°22'7 6.9
2015-Apr-12 14:33N 35°58' W 005°27'14612.7
2015-Apr-12 03:03N 36°18' W 008°25'613.1
2015-Apr-12 02:33N 36°20' W 008°33'1313.3
2015-Apr-12 01:33N 36°23' W 008°49'5212.8
2015-Apr-11 21:32N 36°54' W 009°41'1614.3
2015-Apr-11 20:27N 37°09' W 009°45'1314.3
2015-Apr-11 19:32N 37°22' W 009°49'1414.1
2015-Apr-11 18:33N 37°36' W 009°53'1414.0
2015-Apr-11 17:33N 37°49' W 009°57'1413.9
2015-Apr-11 16:31N 38°03' W 010°01'1414.1
2015-Apr-11 15:33N 38°17' W 010°05'1414.5
2015-Apr-11 14:33N 38°31' W 010°09'1414.2
2015-Apr-11 13:33N 38°45' W 010°12'1414.5
2015-Apr-11 12:33N 38°59' W 010°12'1514.7
2015-Apr-11 11:33N 39°14' W 010°12'  
Track history (hours):
 
Tides and Currents Weather Stations Pressure Air Temp Water Temp Dewpoint Dewpoint Depression Visibility Wind Speed Wind Dir Waves Ship Positions

As Olivia

Last reported at 2015-Apr-20 05:31 UTC. Time now 2015-Apr-21 14:44 UTC.
Position N 31°21' E 032°22'.

Length 146 m; draft 9.7 m.

Type: Ship (hazmat cat B). MMSI: 548767000.

Date/timePositionNaut miles runAvg speedWind from/ knotsBaromVisibWave heightAir tempDewpointWater temp
2015-Apr-20 05:31N 31°21' E 032°22'2 2.3
2015-Apr-20 04:31N 31°22' E 032°19'0 0.0
2015-Apr-20 02:27N 31°22' E 032°19'0 0.0
2015-Apr-20 01:33N 31°22' E 032°19'0 0.0
2015-Apr-20 00:30N 31°22' E 032°19'0 0.0
2015-Apr-19 23:33N 31°22' E 032°19'0 0.0
2015-Apr-19 22:30N 31°22' E 032°19'0 0.0
2015-Apr-19 21:33N 31°22' E 032°19'0 0.0
2015-Apr-19 20:27N 31°22' E 032°19'0 0.0
2015-Apr-19 19:27N 31°22' E 032°19'0 0.0
2015-Apr-19 18:33N 31°22' E 032°19'0 0.0
2015-Apr-19 17:33N 31°22' E 032°19'0 0.0
2015-Apr-19 16:33N 31°22' E 032°19'0 0.0
2015-Apr-19 15:27N 31°22' E 032°19'0 0.0
2015-Apr-19 14:33N 31°22' E 032°19'0 0.0
2015-Apr-19 13:33N 31°22' E 032°19'0 0.0
2015-Apr-19 12:33N 31°22' E 032°19'0 0.1
2015-Apr-19 11:33N 31°22' E 032°19'0 0.1
2015-Apr-19 10:32N 31°22' E 032°19'0 0.2
2015-Apr-19 09:33N 31°22' E 032°20'4711.8
2015-Apr-19 05:33N 31°53' E 031°37'7113.7
2015-Apr-19 00:24N 32°13' E 030°18'1414.2
2015-Apr-18 23:25N 32°18' E 030°02'1214.2
2015-Apr-18 22:33N 32°22' E 029°48'1714.0
2015-Apr-18 21:18N 32°27' E 029°28'1614.1
2015-Apr-18 20:10N 32°32' E 029°10'913.9
2015-Apr-18 19:34N 32°34' E 029°01'  
2015-Apr-16 15:23N 36°21' E 014°45'1214.2
2015-Apr-16 14:33N 36°25' E 014°32'1414.1
2015-Apr-16 13:33N 36°29' E 014°15'1413.8
2015-Apr-16 12:33N 36°33' E 013°59'1413.8
2015-Apr-16 11:33N 36°37' E 013°42'1414.2
2015-Apr-16 10:33N 36°42' E 013°26'1414.0
2015-Apr-16 09:33N 36°46' E 013°09'1413.7
2015-Apr-16 08:33N 36°50' E 012°53'1413.7
2015-Apr-16 07:34N 36°54' E 012°36'1414.0
2015-Apr-16 06:34N 36°59' E 012°20'1413.9
2015-Apr-16 05:33N 37°04' E 012°03'1414.1
2015-Apr-16 04:33N 37°09' E 011°47'13713.5
2015-Apr-15 18:23N 37°41' E 008°60'1813.5
2015-Apr-15 17:05N 37°44' E 008°38'5014.2
2015-Apr-15 13:33N 37°45' E 007°34'1412.8
2015-Apr-15 12:27N 37°44' E 007°16'4514.4
2015-Apr-15 09:19N 37°40' E 006°19'1011.8
2015-Apr-15 08:28N 37°39' E 006°07'1413.6
2015-Apr-15 07:26N 37°37' E 005°49'1413.7
2015-Apr-15 06:23N 37°36' E 005°31'6513.4
2015-Apr-15 01:33N 37°31' E 004°10'1413.9
2015-Apr-15 00:33N 37°29' E 003°52'1413.7
2015-Apr-14 23:33N 37°25' E 003°36'1313.3
2015-Apr-14 22:33N 37°22' E 003°20'1313.3
2015-Apr-14 21:33N 37°18' E 003°03'1313.3
2015-Apr-14 20:33N 37°15' E 002°47'1313.4
2015-Apr-14 19:33N 37°11' E 002°31'1313.1
2015-Apr-14 18:33N 37°08' E 002°15'1212.4
2015-Apr-14 17:33N 37°05' E 002°00'1211.8
2015-Apr-14 16:33N 37°02' E 001°46'1312.9
2015-Apr-14 15:33N 36°59' E 001°30'3213.2
2015-Apr-14 13:09N 36°51' E 000°52'813.4
2015-Apr-14 12:32N 36°49' E 000°42'1413.3
2015-Apr-14 11:29N 36°45' E 000°25'1313.6
2015-Apr-14 10:33N 36°42' E 000°10'1413.7
2015-Apr-14 09:32N 36°38' W 000°07'1313.5
2015-Apr-14 08:33N 36°35' W 000°23'1313.2
2015-Apr-14 07:33N 36°32' W 000°39'1612.8
2015-Apr-14 06:16N 36°28' W 000°59'20811.1
2015-Apr-13 11:34N 36°00' W 005°14'1312.2
2015-Apr-13 10:32N 36°10' W 005°24'1 0.1
2015-Apr-12 18:31N 36°11' W 005°24'6 6.1
2015-Apr-12 17:33N 36°05' W 005°22'1 0.6
2015-Apr-12 16:33N 36°04' W 005°22'1 0.5
2015-Apr-12 15:33N 36°04' W 005°22'7 6.9
2015-Apr-12 14:33N 35°58' W 005°27'14612.7
2015-Apr-12 03:03N 36°18' W 008°25'613.1
2015-Apr-12 02:33N 36°20' W 008°33'1313.3
2015-Apr-12 01:33N 36°23' W 008°49'5212.8
2015-Apr-11 21:32N 36°54' W 009°41'1614.3
2015-Apr-11 20:27N 37°09' W 009°45'1314.3
2015-Apr-11 19:32N 37°22' W 009°49'1414.1
2015-Apr-11 18:33N 37°36' W 009°53'1414.0
2015-Apr-11 17:33N 37°49' W 009°57'1413.9
2015-Apr-11 16:31N 38°03' W 010°01'1414.1
2015-Apr-11 15:33N 38°17' W 010°05'1414.5
2015-Apr-11 14:33N 38°31' W 010°09'1414.2
2015-Apr-11 13:33N 38°45' W 010°12'1414.5
2015-Apr-11 12:33N 38°59' W 010°12'1514.7
2015-Apr-11 11:33N 39°14' W 010°12'  

Dump ship's entire track history